createdAt,value
2022-08-07T00:02:40.574Z,636.13483
2022-08-07T00:07:45.936Z,530.66667
2022-08-07T00:13:00.408Z,440.77419
2022-08-07T00:18:03.035Z,560
2022-08-07T00:23:08.028Z,585.66667
2022-08-07T00:28:10.776Z,572.57143
2022-08-07T00:33:12.635Z,489.13274
2022-08-07T00:38:14.507Z,393.63504
2022-08-07T00:44:00.854Z,288.13408
2022-08-07T00:49:04.042Z,360.21622
2022-08-07T00:54:05.661Z,346.61438
2022-08-07T00:59:07.288Z,444.81301
2022-08-07T01:04:09.528Z,338.87179
2022-08-07T01:09:12.374Z,292.0226
2022-08-07T01:15:07.367Z,245.96078
2022-08-07T01:20:16.795Z,269.92593
2022-08-07T01:25:39.928Z,215.36564
2022-08-07T01:30:42.587Z,217.77778
2022-08-07T01:35:54.418Z,226.56881
2022-08-07T01:40:58.420Z,201.74059
2022-08-07T01:46:00.086Z,124.11696
2022-08-07T01:51:24.044Z,193.39271
2022-08-07T01:57:04.746Z,125.17647
2022-08-07T02:02:10.564Z,137.10345
2022-08-07T02:07:12.378Z,110.48649
2022-08-07T02:12:15.895Z,65.25984
2022-08-07T02:17:27.419Z,62.23417
2022-08-07T02:22:33.317Z,68.44444
2022-08-07T02:27:36.439Z,103.58549
2022-08-07T02:33:07.371Z,98.77387
2022-08-07T02:38:11.270Z,98.38596
2022-08-07T02:43:13.826Z,99.94937
2022-08-07T02:48:15.939Z,110.03774
2022-08-07T02:53:17.989Z,97.61596
2022-08-07T02:58:21.640Z,110.93767
2022-08-07T03:03:23.509Z,116.54902
2022-08-07T03:08:29.168Z,118.50425
2022-08-07T03:13:38.681Z,105.25654
2022-08-07T03:18:41.050Z,109.5914
2022-08-07T03:24:26.761Z,114.63712
2022-08-07T03:29:29.461Z,106.53298
2022-08-07T03:34:31.042Z,116.54902
2022-08-07T03:39:59.463Z,110.93767
2022-08-07T03:45:02.260Z,99.16373
2022-08-07T03:50:04.937Z,98.77387
2022-08-07T03:55:12.344Z,96.09877
2022-08-07T04:00:14.136Z,134.12346
2022-08-07T04:05:16.537Z,139.55556
2022-08-07T04:10:19.675Z,149.33333
2022-08-07T04:15:23.976Z,175.57895
2022-08-07T04:20:25.882Z,126.24852
2022-08-07T04:25:29.281Z,170.47059
2022-08-07T04:30:44.024Z,128.98498
2022-08-07T04:35:57.842Z,135.90031
2022-08-07T04:40:59.514Z,114.63712
2022-08-07T04:46:02.206Z,115.58774
2022-08-07T04:51:03.920Z,113.69697
2022-08-07T04:58:09.596Z,120
2022-08-07T05:04:00.125Z,200.66667
2022-08-07T05:09:09.032Z,156.41379
2022-08-07T05:14:53.264Z,145.96721
2022-08-07T05:19:58.915Z,129.54217
2022-08-07T05:25:01.482Z,106.96296
2022-08-07T05:30:03.080Z,102.35476
2022-08-07T05:35:05.372Z,142.07074
2022-08-07T05:40:18.309Z,125.17647
2022-08-07T05:45:46.357Z,196.45902
2022-08-07T05:50:50.609Z,156.41379
2022-08-07T05:56:02.254Z,130.10272
2022-08-07T06:01:10.504Z,118.0113
2022-08-07T06:06:12.665Z,116.54902
2022-08-07T06:11:20.617Z,146.63158
2022-08-07T06:16:22.831Z,114.16575
2022-08-07T06:22:14.980Z,122.03468
2022-08-07T06:27:59.688Z,108.26667
2022-08-07T06:33:03.681Z,112.76712
2022-08-07T06:38:05.337Z,111.84741
2022-08-07T06:43:21.399Z,110.93767
2022-08-07T06:48:24.697Z,110.93767
2022-08-07T06:55:27.735Z,112.76712
2022-08-07T07:00:36.384Z,113.23077
2022-08-07T07:06:02.869Z,99.94937
2022-08-07T07:11:13.571Z,97.23383
2022-08-07T07:17:08.812Z,135.90031
2022-08-07T07:22:35.688Z,172.14815
2022-08-07T07:28:01.921Z,150.02007
2022-08-07T07:33:04.650Z,183.68872
2022-08-07T07:38:06.841Z,125.71091
2022-08-07T07:43:15.162Z,125.71091
2022-08-07T07:48:35.116Z,110.03774
2022-08-07T07:53:40.708Z,100.743
2022-08-07T07:58:54.406Z,98.38596
2022-08-07T08:04:09.594Z,111.3913
2022-08-07T08:09:12.801Z,96.47525
2022-08-07T08:14:15.184Z,100.743
2022-08-07T08:20:19.531Z,96.09877
2022-08-07T08:25:42.580Z,107.82979
2022-08-07T08:30:51.284Z,102.76289
2022-08-07T08:35:57.326Z,100.34518
2022-08-07T08:40:58.938Z,92.79227
2022-08-07T08:46:04.559Z,91.72182
2022-08-07T08:51:14.816Z,98.38596
2022-08-07T08:56:27.828Z,104.83551
2022-08-07T09:01:40.098Z,116.54902
2022-08-07T09:06:47.778Z,130.10272
2022-08-07T09:11:53.263Z,110.93767
2022-08-07T09:16:57.242Z,107.82979
2022-08-07T09:22:22.902Z,177.33333
2022-08-07T09:30:03.930Z,121.52161
2022-08-07T09:36:04.464Z,124.11696
2022-08-07T09:41:07.906Z,109.5914
2022-08-07T09:47:26.104Z,117.03371
2022-08-07T09:53:00.834Z,134.12346
2022-08-07T09:58:02.521Z,135.90031
2022-08-07T10:03:08.403Z,115.58774
2022-08-07T10:09:06.453Z,122.03468
2022-08-07T10:14:08.032Z,116.06704
2022-08-07T10:19:13.341Z,115.58774
2022-08-07T10:24:18.621Z,142.07074
2022-08-07T10:29:23.197Z,120.5043
2022-08-07T10:34:32.051Z,142.07074
2022-08-07T10:39:41.617Z,137.10345
2022-08-07T10:44:59.078Z,114.16575
2022-08-07T10:50:01.240Z,116.06704
2022-08-07T10:55:20.834Z,106.96296
2022-08-07T11:00:39.344Z,99.55556
2022-08-07T11:05:50.584Z,112.30601
2022-08-07T11:10:57.799Z,122.55072
2022-08-07T11:16:01.737Z,113.23077
2022-08-07T11:21:08.829Z,101.14286
2022-08-07T11:26:13.079Z,99.55556
2022-08-07T11:31:15.005Z,97.23383
2022-08-07T11:36:16.614Z,91.72182
2022-08-07T11:41:30.952Z,100.34518
2022-08-07T11:47:04.336Z,89.62648
2022-08-07T11:52:07.194Z,98.38596
2022-08-07T11:57:11.387Z,103.17313
2022-08-07T12:02:20.729Z,104.41667
2022-08-07T12:07:38.765Z,98.77387
2022-08-07T12:12:41.946Z,106.10526
2022-08-07T12:17:59.184Z,117.52113
2022-08-07T12:23:02.800Z,98.77387
2022-08-07T12:28:11.395Z,101.94872
2022-08-07T12:33:23.381Z,150.02007
2022-08-07T12:38:42.927Z,119.49858
2022-08-07T12:44:02.975Z,101.94872
2022-08-07T12:49:10.054Z,106.10526
2022-08-07T12:54:38.558Z,96.09877
2022-08-07T12:59:55.396Z,91.72182
2022-08-07T13:05:01.947Z,89.97156
2022-08-07T13:10:21.617Z,104.41667
2022-08-07T13:15:39.135Z,102.35476
2022-08-07T13:20:41.083Z,97.23383
2022-08-07T13:25:42.736Z,91.36842
2022-08-07T13:30:53.382Z,91.01671
2022-08-07T13:36:05.748Z,92.43373
2022-08-07T13:41:08.464Z,96.09877
2022-08-07T13:46:22.101Z,118.0113
2022-08-07T13:52:05.039Z,116.54902
2022-08-07T13:57:24.045Z,108.70588
2022-08-07T14:02:29.736Z,127.8806
2022-08-07T14:08:00.086Z,149.33333
2022-08-07T14:13:03.740Z,164.78853
2022-08-07T14:18:24.284Z,137.10345
2022-08-07T14:23:59.452Z,138.32177
2022-08-07T14:29:08.893Z,189.41833
2022-08-07T14:35:07.585Z,220.23318
2022-08-07T14:40:17.665Z,217.77778
2022-08-07T14:45:46.874Z,224
2022-08-07T14:50:51.142Z,199.60166
2022-08-07T15:56:59.711Z,278.78261
2022-08-07T16:02:02.452Z,273.41176
2022-08-07T16:07:04.618Z,225.27854
2022-08-07T16:12:06.531Z,210.66667
2022-08-07T16:17:15.392Z,211.82609
2022-08-07T16:22:31.808Z,206.12766
2022-08-07T16:27:40.761Z,203.91561
2022-08-07T16:32:46.349Z,200.66667
2022-08-07T16:38:06.925Z,194.4065
2022-08-07T16:43:11.384Z,184.625
2022-08-07T16:48:13.619Z,175.57895
2022-08-07T16:54:02.532Z,163.21708
2022-08-07T16:59:14.450Z,164.78853
2022-08-07T17:04:17.173Z,155.68385
2022-08-07T17:10:07.568Z,152.10811
2022-08-07T17:15:10.687Z,190.4
2022-08-07T17:20:20.930Z,178.22053
2022-08-07T17:25:51.193Z,196.45902
2022-08-07T17:30:58.510Z,183.68872
2022-08-07T17:36:01.140Z,180.92308
2022-08-07T17:42:00.909Z,205.01695
2022-08-07T17:47:08.514Z,191.38956
2022-08-07T17:52:18.292Z,192.3871
2022-08-07T17:57:19.870Z,192.3871
2022-08-07T18:02:23.206Z,210.66667
2022-08-07T18:07:33.994Z,226.56881
2022-08-07T18:12:36.512Z,245.96078
2022-08-07T18:19:02.627Z,245.96078
2022-08-07T18:26:16.370Z,484.35088
2022-08-07T18:31:18.668Z,312.86228
2022-08-07T18:36:33.445Z,286.22222
2022-08-07T18:41:44.683Z,317.33333
2022-08-07T18:46:47.401Z,357.42282
2022-08-07T18:52:37.962Z,384
2022-08-07T18:57:58.694Z,377.80282
2022-08-07T19:03:01.354Z,377.80282
2022-08-07T19:08:03.945Z,410.66667
2022-08-07T19:13:11.739Z,436.8
2022-08-07T19:18:34.552Z,432.88889
2022-08-07T19:23:59.134Z,436.8
2022-08-07T19:30:58.415Z,444.81301
2022-08-07T19:36:09.062Z,421.51938
2022-08-07T19:41:10.694Z,414.22901
2022-08-07T19:46:13.430Z,421.51938
2022-08-07T19:51:19.627Z,417.84615
2022-08-07T19:58:00.142Z,390.37681
2022-08-07T20:03:33.608Z,390.37681
2022-08-07T20:08:37.604Z,341.41935
2022-08-07T20:13:41.896Z,317.33333
2022-08-07T20:18:43.893Z,312.86228
2022-08-07T20:23:48.458Z,292.0226
2022-08-07T20:28:55.469Z,286.22222
2022-08-07T20:33:57.382Z,290.06742
2022-08-07T20:39:00.304Z,280.61202
2022-08-07T20:44:02.730Z,280.61202
2022-08-07T20:50:01.030Z,266.51309
2022-08-07T20:55:04.121Z,296
2022-08-07T21:00:09.575Z,256.69036
2022-08-07T21:05:16.312Z,258.28571
2022-08-07T21:10:18.337Z,269.92593
2022-08-07T21:15:58.050Z,261.52577
2022-08-07T21:21:00.667Z,256.69036
2022-08-07T21:26:03.239Z,263.17098
2022-08-07T21:31:04.978Z,261.52577
2022-08-07T21:36:11.633Z,252
2022-08-07T21:41:14.015Z,247.44828
2022-08-07T21:46:24.801Z,248.9505
2022-08-07T21:51:33.219Z,207.24786
2022-08-07T21:56:59.791Z,233.20188
2022-08-07T22:02:11.558Z,221.47748
2022-08-07T22:07:31.659Z,206.12766
2022-08-07T22:12:44.608Z,220.23318
2022-08-07T22:17:46.915Z,222.73303
2022-08-07T22:22:53.313Z,230.51163
2022-08-07T22:28:07.697Z,230.51163
2022-08-07T22:33:52.939Z,175.57895
2022-08-07T22:38:59.227Z,191.38956
2022-08-07T22:44:01.202Z,192.3871
2022-08-07T22:49:09.662Z,197.49794
2022-08-07T22:54:16.112Z,197.49794
2022-08-07T22:59:17.885Z,163.21708
2022-08-07T23:04:29.939Z,157.88889
2022-08-07T23:10:05.524Z,199.60166
2022-08-07T23:16:05.969Z,182.75969
2022-08-07T23:21:10.201Z,234.56604
2022-08-07T23:26:18.266Z,195.42857
2022-08-07T23:32:49.546Z,194.4065
2022-08-07T23:39:26.483Z,179.1145
2022-08-07T23:44:38.021Z,157.14879
2022-08-07T23:49:42.456Z,181.83784
2022-08-07T23:54:58.183Z,167.18841
